Time;durP1;ratioP1;P1;durP2;ratioP2;P2;SDS_P1;SDS_P2;PMS_P1;PMS_P2;Temp;Humidity;BMP_temperature;BMP_pressure;BME280_temperature;BME280_humidity;BME280_pressure;Samples;Min_cycle;Max_cycle;Signal;HPM_P1;HPM_P2
2024/04/17 00:01:51;;;;;;;11.55;3.30;;;7.70;99.90;;;;;;5463243;26;20236;-82
2024/04/17 00:04:17;;;;;;;13.70;4.13;;;7.70;99.90;;;;;;5454410;26;20233;-84
2024/04/17 00:06:48;;;;;;;11.30;3.78;;;7.60;99.90;;;;;;5456778;26;20291;-83
2024/04/17 00:09:14;;;;;;;9.38;4.00;;;7.60;99.90;;;;;;5453403;26;20271;-84
2024/04/17 00:11:43;;;;;;;5.53;2.60;;;7.60;99.90;;;;;;5441563;26;20240;-84
2024/04/17 00:14:09;;;;;;;5.70;2.70;;;7.60;99.90;;;;;;5442405;26;20467;-83
2024/04/17 00:16:38;;;;;;;12.60;3.05;;;7.60;99.90;;;;;;5442163;26;20236;-81
2024/04/17 00:19:05;;;;;;;8.98;2.75;;;7.60;99.90;;;;;;5458726;26;20367;-82
2024/04/17 00:21:34;;;;;;;6.57;2.80;;;7.60;99.90;;;;;;5453113;26;20318;-83
2024/04/17 00:24:03;;;;;;;9.80;4.07;;;7.60;99.90;;;;;;5458036;26;20565;-84
2024/04/17 00:26:31;;;;;;;11.35;3.20;;;7.70;99.90;;;;;;5452687;26;20320;-83
2024/04/17 00:28:57;;;;;;;4.40;2.50;;;7.60;99.90;;;;;;5462665;26;20232;-83
2024/04/17 00:31:26;;;;;;;6.03;2.30;;;7.70;99.90;;;;;;5476760;26;20255;-83
2024/04/17 00:33:52;;;;;;;11.60;3.28;;;7.60;99.90;;;;;;5478093;26;20435;-85
2024/04/17 00:36:21;;;;;;;9.88;3.70;;;7.60;99.90;;;;;;5468498;26;20225;-84
2024/04/17 00:38:47;;;;;;;6.57;4.47;;;7.60;99.90;;;;;;5462489;26;20352;-81
2024/04/17 00:41:18;;;;;;;14.77;3.30;;;7.60;99.90;;;;;;5462263;26;20236;-83
2024/04/17 00:43:44;;;;;;;7.40;3.60;;;7.50;99.90;;;;;;5458800;26;20228;-83
2024/04/17 00:46:14;;;;;;;10.77;2.90;;;7.50;99.90;;;;;;5446953;26;20713;-81
2024/04/17 00:48:42;;;;;;;13.25;4.32;;;7.60;99.90;;;;;;5462878;26;20998;-83
2024/04/17 00:51:13;;;;;;;9.35;3.70;;;7.50;99.90;;;;;;5461934;26;20228;-83
2024/04/17 00:53:40;;;;;;;14.05;6.00;;;7.60;99.90;;;;;;5463178;26;20263;-83
2024/04/17 00:56:10;;;;;;;8.77;3.85;;;7.60;99.90;;;;;;5462027;26;20244;-83
2024/04/17 00:58:42;;;;;;;7.20;4.55;;;7.60;99.90;;;;;;5459236;26;20279;-82
2024/04/17 01:01:10;;;;;;;9.23;3.25;;;7.60;99.90;;;;;;5471226;26;20220;-82
2024/04/17 01:03:36;;;;;;;10.00;4.43;;;7.70;99.90;;;;;;5478519;26;20209;-82
2024/04/17 01:06:05;;;;;;;8.00;3.70;;;7.60;99.90;;;;;;5478404;26;20208;-83
2024/04/17 01:08:33;;;;;;;6.40;3.38;;;7.60;99.90;;;;;;5478702;26;20465;-84
2024/04/17 01:11:02;;;;;;;11.07;3.50;;;7.60;99.90;;;;;;5478720;26;20216;-84
2024/04/17 01:13:29;;;;;;;12.20;3.30;;;7.60;99.90;;;;;;5478947;26;20242;-84
2024/04/17 01:16:01;;;;;;;9.23;4.05;;;7.50;99.90;;;;;;5478442;26;20208;-85
2024/04/17 01:18:28;;;;;;;12.07;3.72;;;7.50;99.90;;;;;;5476765;26;20271;-83
2024/04/17 01:20:57;;;;;;;10.57;3.55;;;7.60;99.90;;;;;;5474163;26;20271;-82
2024/04/17 01:23:23;;;;;;;9.05;3.60;;;7.50;99.90;;;;;;5469556;26;20290;-82
2024/04/17 01:25:54;;;;;;;7.47;3.03;;;7.50;99.90;;;;;;5468631;26;20228;-83
2024/04/17 01:28:20;;;;;;;7.53;3.50;;;7.50;99.90;;;;;;5468284;26;20469;-83
2024/04/17 01:30:48;;;;;;;6.77;3.30;;;7.50;99.90;;;;;;5471778;26;20255;-83
2024/04/17 01:33:14;;;;;;;7.93;3.25;;;7.50;99.90;;;;;;5478831;26;20542;-84
2024/04/17 01:35:50;;;;;;;7.90;3.70;;;7.40;99.90;;;;;;5478934;26;20220;-82
2024/04/17 01:38:16;;;;;;;12.48;5.05;;;7.40;99.90;;;;;;5478324;26;20457;-84
2024/04/17 01:40:44;;;;;;;17.33;6.57;;;7.40;99.90;;;;;;5478686;26;20303;-83
2024/04/17 01:43:13;;;;;;;13.48;3.88;;;7.40;99.90;;;;;;5478476;26;20450;-82
2024/04/17 01:45:46;;;;;;;13.55;4.50;;;7.30;99.90;;;;;;5478586;26;20204;-83
2024/04/17 01:48:12;;;;;;;8.98;5.05;;;7.20;99.90;;;;;;5478025;26;20271;-83
2024/04/17 01:50:41;;;;;;;14.88;4.25;;;7.20;99.90;;;;;;5478155;26;20204;-83
2024/04/17 01:53:07;;;;;;;10.13;4.35;;;7.20;99.90;;;;;;5478447;26;20208;-82
2024/04/17 01:55:35;;;;;;;17.50;4.63;;;7.20;99.90;;;;;;5478368;26;20239;-83
2024/04/17 01:58:04;;;;;;;6.13;3.08;;;7.20;99.90;;;;;;5446406;26;20463;-83
2024/04/17 02:00:37;;;;;;;16.20;4.57;;;7.20;99.90;;;;;;5467313;26;20250;-82
2024/04/17 02:03:03;;;;;;;7.68;3.50;;;7.10;99.90;;;;;;5476176;25;20231;-83
2024/04/17 02:05:32;;;;;;;14.98;4.55;;;7.10;99.90;;;;;;5477061;26;20284;-82
2024/04/17 02:07:58;;;;;;;12.60;4.80;;;7.10;99.90;;;;;;5458863;26;20275;-84
2024/04/17 02:10:27;;;;;;;9.13;3.72;;;7.10;99.90;;;;;;5464870;25;20220;-82
2024/04/17 02:12:53;;;;;;;9.38;4.22;;;7.00;99.90;;;;;;5471012;26;20229;-82
2024/04/17 02:15:21;;;;;;;13.63;4.00;;;7.00;99.90;;;;;;5464969;26;20266;-81
2024/04/17 02:17:50;;;;;;;8.02;3.75;;;7.00;99.90;;;;;;5464933;26;20469;-84
2024/04/17 02:20:19;;;;;;;11.95;5.13;;;7.00;99.90;;;;;;5471796;26;20302;-82
2024/04/17 02:22:44;;;;;;;13.88;4.43;;;7.00;99.90;;;;;;5470307;26;20240;-83
2024/04/17 02:25:13;;;;;;;7.40;3.67;;;7.00;99.90;;;;;;5463918;26;20292;-84
2024/04/17 02:27:39;;;;;;;10.43;3.70;;;6.80;99.90;;;;;;5462939;26;20481;-83
2024/04/17 02:30:09;;;;;;;9.47;3.60;;;6.90;99.90;;;;;;5463574;26;20270;-83
2024/04/17 02:32:35;;;;;;;12.65;5.75;;;6.90;99.90;;;;;;5452400;26;20475;-82
2024/04/17 02:35:06;;;;;;;9.87;3.57;;;6.90;99.90;;;;;;5462105;26;20236;-82
2024/04/17 02:37:32;;;;;;;14.35;4.75;;;6.90;99.90;;;;;;5450741;26;20473;-81
2024/04/17 02:40:01;;;;;;;12.33;4.00;;;6.90;99.90;;;;;;5466054;26;20227;-85
2024/04/17 02:42:29;;;;;;;11.32;4.00;;;7.00;99.90;;;;;;5462531;26;20521;-85
2024/04/17 02:44:57;;;;;;;13.75;3.70;;;6.90;99.90;;;;;;5459774;26;20232;-84
2024/04/17 02:47:23;;;;;;;13.50;3.88;;;6.80;99.90;;;;;;5461163;26;20236;-83
2024/04/17 02:49:52;;;;;;;8.02;3.38;;;6.80;99.90;;;;;;5444727;26;20649;-82
2024/04/17 02:52:21;;;;;;;17.33;5.00;;;6.80;99.90;;;;;;5452477;26;20241;-83
2024/04/17 02:54:50;;;;;;;8.98;3.78;;;6.80;99.90;;;;;;5454137;26;20236;-82
2024/04/17 02:57:16;;;;;;;8.80;3.75;;;6.80;99.90;;;;;;5446410;26;20267;-82
2024/04/17 02:59:44;;;;;;;11.27;3.03;;;6.70;99.90;;;;;;5459909;26;20232;-83
2024/04/17 03:02:10;;;;;;;12.10;4.50;;;6.70;99.90;;;;;;5459779;26;20466;-82
2024/04/17 03:04:39;;;;;;;10.27;4.37;;;6.70;99.90;;;;;;5459310;26;20236;-83
2024/04/17 03:07:05;;;;;;;7.15;4.30;;;6.70;99.90;;;;;;5459564;26;20892;-83
2024/04/17 03:09:36;;;;;;;10.07;4.30;;;6.70;99.90;;;;;;5459584;26;20236;-84
2024/04/17 03:12:02;;;;;;;12.15;3.45;;;6.60;99.90;;;;;;5459881;26;20259;-83
2024/04/17 03:14:31;;;;;;;10.07;3.67;;;6.60;99.90;;;;;;5461660;26;20294;-83
2024/04/17 03:16:57;;;;;;;7.93;2.90;;;6.60;99.90;;;;;;5463243;26;20231;-83
2024/04/17 03:19:25;;;;;;;13.52;3.38;;;6.60;99.90;;;;;;5462725;26;20248;-83
2024/04/17 03:21:51;;;;;;;10.32;3.38;;;6.60;99.90;;;;;;5457935;26;20224;-83
2024/04/17 03:24:20;;;;;;;17.70;4.00;;;6.70;99.90;;;;;;5462979;26;20286;-84
2024/04/17 03:26:49;;;;;;;12.77;4.20;;;6.50;99.90;;;;;;5461883;26;20465;-83
2024/04/17 03:29:21;;;;;;;10.57;3.97;;;6.60;99.90;;;;;;5448463;26;20284;-83
2024/04/17 03:31:47;;;;;;;8.30;3.15;;;6.60;99.90;;;;;;5459169;26;20278;-81
2024/04/17 03:34:15;;;;;;;9.57;3.83;;;6.50;99.90;;;;;;5461147;26;20294;-83
2024/04/17 03:36:41;;;;;;;15.48;3.95;;;6.50;99.90;;;;;;5461743;26;20577;-83
2024/04/17 03:39:11;;;;;;;28.93;5.10;;;6.40;99.90;;;;;;5462566;26;20295;-82
2024/04/17 03:41:39;;;;;;;9.70;4.00;;;6.50;99.90;;;;;;5447483;26;20525;-81
2024/04/17 03:44:10;;;;;;;15.20;3.60;;;6.40;99.90;;;;;;5462892;26;20274;-83
2024/04/17 03:46:37;;;;;;;10.02;2.70;;;6.40;99.90;;;;;;5451105;26;20232;-83
2024/04/17 03:49:05;;;;;;;11.77;4.20;;;6.30;99.90;;;;;;5455329;26;20629;-82
2024/04/17 03:51:34;;;;;;;11.27;2.83;;;6.30;99.90;;;;;;5452293;26;20282;-83
2024/04/17 03:54:02;;;;;;;9.55;3.78;;;6.30;99.90;;;;;;5465216;26;20305;-82
2024/04/17 03:56:28;;;;;;;5.63;3.50;;;6.20;99.90;;;;;;5479390;26;20204;-83
2024/04/17 03:58:57;;;;;;;10.35;3.80;;;6.20;99.90;;;;;;5479699;26;20216;-82
2024/04/17 04:01:26;;;;;;;10.07;3.70;;;6.20;99.90;;;;;;5479455;26;20205;-83
2024/04/17 04:03:54;;;;;;;10.43;3.20;;;6.20;99.90;;;;;;5479543;26;20217;-80
2024/04/17 04:06:20;;;;;;;11.75;3.70;;;6.20;99.90;;;;;;5478639;26;20255;-83
2024/04/17 04:08:49;;;;;;;16.23;4.03;;;6.20;99.90;;;;;;5478772;26;20228;-82
2024/04/17 04:11:17;;;;;;;18.77;5.38;;;6.20;99.90;;;;;;5479155;26;20225;-80
2024/04/17 04:13:43;;;;;;;5.00;2.80;;;6.30;99.90;;;;;;5479747;26;20209;-82
2024/04/17 04:16:12;;;;;;;10.90;3.90;;;6.30;99.90;;;;;;5463747;26;20251;-82
2024/04/17 04:18:41;;;;;;;13.45;4.03;;;6.30;99.90;;;;;;5477405;25;20477;-82
2024/04/17 04:21:09;;;;;;;14.60;3.80;;;6.30;99.90;;;;;;5469677;26;20219;-80
2024/04/17 04:23:35;;;;;;;11.73;4.30;;;6.30;99.90;;;;;;5470497;26;20564;-81
2024/04/17 04:26:04;;;;;;;10.47;3.90;;;6.20;99.90;;;;;;5469492;26;20236;-82
2024/04/17 04:28:30;;;;;;;10.98;4.90;;;6.20;99.90;;;;;;5470452;26;20533;-81
2024/04/17 04:30:58;;;;;;;5.70;3.67;;;6.20;99.90;;;;;;5473058;26;20247;-82
2024/04/17 04:33:24;;;;;;;5.53;3.67;;;6.20;99.90;;;;;;5476038;26;20449;-80
2024/04/17 04:35:55;;;;;;;13.17;4.03;;;6.20;99.90;;;;;;5477215;26;20275;-81
2024/04/17 04:38:21;;;;;;;8.68;3.75;;;6.20;99.90;;;;;;5462833;26;20465;-82
2024/04/17 04:40:50;;;;;;;9.67;4.63;;;6.30;99.90;;;;;;5473235;26;20227;-81
2024/04/17 04:43:16;;;;;;;8.85;3.53;;;6.40;99.90;;;;;;5455247;26;21884;-81
2024/04/17 04:45:44;;;;;;;10.57;3.40;;;6.50;99.90;;;;;;5470679;26;20769;-81
2024/04/17 04:48:10;;;;;;;10.85;5.25;;;6.50;99.90;;;;;;5473347;26;20240;-79
2024/04/17 04:50:39;;;;;;;12.63;5.03;;;6.60;99.90;;;;;;5472401;26;20279;-81
2024/04/17 04:53:07;;;;;;;11.05;3.53;;;6.70;99.90;;;;;;5470900;26;20473;-82
2024/04/17 04:55:36;;;;;;;13.27;3.80;;;6.80;99.90;;;;;;5471087;26;20228;-80
2024/04/17 04:58:02;;;;;;;12.25;3.90;;;6.80;99.90;;;;;;5473211;26;20271;-79
2024/04/17 05:00:37;;;;;;;18.83;4.40;;;6.80;99.90;;;;;;5460178;26;20228;-80
2024/04/17 05:03:04;;;;;;;13.88;3.80;;;7.10;99.90;;;;;;5474384;26;20452;-80
2024/04/17 05:05:32;;;;;;;15.88;4.53;;;7.10;99.90;;;;;;5467881;26;20237;-80
2024/04/17 05:07:58;;;;;;;6.60;3.40;;;7.10;99.90;;;;;;5472047;26;20228;-79
2024/04/17 05:10:31;;;;;;;8.50;3.35;;;7.20;99.90;;;;;;5473885;26;20283;-83
2024/04/17 05:12:58;;;;;;;13.70;3.30;;;7.30;99.90;;;;;;5476554;26;20241;-81
2024/04/17 05:15:27;;;;;;;9.25;3.70;;;7.40;99.90;;;;;;5476101;26;20251;-80
2024/04/17 05:18:03;;;;;;;12.27;3.55;;;7.50;99.90;;;;;;5471415;26;20228;-81
2024/04/17 05:20:31;;;;;;;11.10;4.00;;;7.60;99.90;;;;;;5468243;26;20367;-82
2024/04/17 05:22:57;;;;;;;11.50;3.42;;;7.70;99.90;;;;;;5467667;26;20224;-81
2024/04/17 05:25:26;;;;;;;11.60;3.87;;;7.90;99.90;;;;;;5466123;26;20262;-80
2024/04/17 05:27:54;;;;;;;12.35;3.72;;;8.20;99.90;;;;;;5450289;26;20467;-82
2024/04/17 05:30:24;;;;;;;14.23;4.25;;;8.60;99.90;;;;;;5468541;26;20248;-82
2024/04/17 05:32:50;;;;;;;13.00;3.33;;;8.90;99.90;;;;;;5461295;26;20232;-84
2024/04/17 05:35:18;;;;;;;7.97;2.92;;;9.40;99.90;;;;;;5454100;26;20278;-82
2024/04/17 05:37:45;;;;;;;9.38;3.17;;;9.80;99.90;;;;;;5459699;26;20244;-82
2024/04/17 05:40:14;;;;;;;12.38;4.25;;;10.10;99.90;;;;;;5458345;26;20244;-82
2024/04/17 05:42:40;;;;;;;13.88;4.53;;;10.20;99.90;;;;;;5453523;26;20232;-81
2024/04/17 05:45:11;;;;;;;8.82;3.47;;;10.20;99.90;;;;;;5469145;26;20232;-81
2024/04/17 05:47:37;;;;;;;10.57;3.92;;;10.20;99.90;;;;;;5453424;26;20236;-82
2024/04/17 05:50:06;;;;;;;11.60;4.00;;;10.20;99.90;;;;;;5468095;26;20274;-82
2024/04/17 05:52:32;;;;;;;5.25;2.78;;;10.20;99.90;;;;;;5472282;26;20462;-81
2024/04/17 05:55:01;;;;;;;11.70;4.57;;;10.30;99.90;;;;;;5473251;26;20232;-79
2024/04/17 05:57:27;;;;;;;15.85;4.10;;;10.70;99.90;;;;;;5473266;26;20477;-80
2024/04/17 05:59:55;;;;;;;6.88;3.45;;;11.10;99.90;;;;;;5473836;26;20224;-80
2024/04/17 06:02:24;;;;;;;11.63;3.75;;;11.60;99.90;;;;;;5473814;26;20232;-79
2024/04/17 06:04:53;;;;;;;8.18;3.22;;;12.30;99.90;;;;;;5472330;26;20282;-80
2024/04/17 06:07:18;;;;;;;8.50;4.03;;;12.80;99.90;;;;;;5457152;26;20228;-83
2024/04/17 06:09:47;;;;;;;5.23;3.10;;;13.70;99.90;;;;;;5471080;26;20272;-81
2024/04/17 06:12:13;;;;;;;13.35;3.03;;;14.30;99.90;;;;;;5470841;26;20489;-82
2024/04/17 06:14:42;;;;;;;10.07;3.27;;;14.80;99.90;;;;;;5467639;26;20287;-82
2024/04/17 06:17:08;;;;;;;9.10;3.37;;;15.60;99.90;;;;;;5464129;26;20523;-82
2024/04/17 06:19:39;;;;;;;7.15;3.90;;;15.90;99.90;;;;;;5460897;26;20561;-83
2024/04/17 06:22:05;;;;;;;10.18;4.80;;;15.60;99.90;;;;;;5462496;26;20229;-80
2024/04/17 06:24:34;;;;;;;6.33;3.50;;;15.00;99.90;;;;;;5463594;26;20286;-80
2024/04/17 06:27:00;;;;;;;17.88;4.97;;;14.60;99.90;;;;;;5465379;26;20474;-80
2024/04/17 06:29:29;;;;;;;9.33;3.00;;;14.10;99.90;;;;;;5469477;26;20272;-81
2024/04/17 06:31:54;;;;;;;8.45;3.17;;;14.00;99.90;;;;;;5463356;26;20526;-82
2024/04/17 06:34:23;;;;;;;8.43;3.60;;;14.30;99.90;;;;;;5469906;26;20224;-82
2024/04/17 06:36:54;;;;;;;9.00;2.93;;;14.90;99.90;;;;;;5470846;26;20453;-82
2024/04/17 06:39:20;;;;;;;7.90;2.83;;;15.50;99.90;;;;;;5473990;26;20460;-80
2024/04/17 06:41:49;;;;;;;11.63;3.53;;;16.10;99.60;;;;;;5474644;26;20503;-81
2024/04/17 06:44:16;;;;;;;11.00;3.97;;;16.60;98.30;;;;;;5469493;26;20450;-80
2024/04/17 06:46:44;;;;;;;7.93;2.70;;;16.80;97.00;;;;;;5460331;26;20449;-80
2024/04/17 06:49:12;;;;;;;7.20;2.87;;;17.30;96.20;;;;;;5474400;25;20457;-81
2024/04/17 06:51:40;;;;;;;8.63;4.13;;;18.00;95.90;;;;;;5478174;26;20508;-82
2024/04/17 06:54:09;;;;;;;6.20;2.90;;;18.20;95.00;;;;;;5478376;26;20516;-80
2024/04/17 06:56:37;;;;;;;6.73;3.20;;;18.60;94.30;;;;;;5477275;26;20522;-79
2024/04/17 06:59:03;;;;;;;11.77;3.20;;;19.00;93.10;;;;;;5477924;25;20453;-80
2024/04/17 07:01:32;;;;;;;9.70;2.90;;;19.00;91.50;;;;;;5477868;26;20525;-81
2024/04/17 07:03:58;;;;;;;8.20;2.97;;;18.70;91.10;;;;;;5477985;26;20512;-80
2024/04/17 07:06:27;;;;;;;10.93;3.40;;;18.50;92.00;;;;;;5472032;26;21088;-81
2024/04/17 07:08:52;;;;;;;10.10;3.80;;;18.50;91.70;;;;;;5470892;26;20537;-82
2024/04/17 07:11:24;;;;;;;12.20;3.30;;;18.20;91.70;;;;;;5471401;26;20837;-81
2024/04/17 07:13:50;;;;;;;7.83;3.63;;;17.90;92.10;;;;;;5472467;26;20523;-80
2024/04/17 07:16:18;;;;;;;15.33;4.80;;;17.70;92.80;;;;;;5469401;26;20477;-81
2024/04/17 07:18:45;;;;;;;8.57;3.33;;;18.40;92.50;;;;;;5469784;26;20532;-81
2024/04/17 07:21:14;;;;;;;9.37;3.30;;;19.00;91.40;;;;;;5467071;26;20501;-83
2024/04/17 07:23:40;;;;;;;8.63;3.30;;;19.40;90.90;;;;;;5452311;26;20503;-82
2024/04/17 07:26:08;;;;;;;7.10;3.20;;;19.70;90.80;;;;;;5469841;26;20473;-82
2024/04/17 07:28:37;;;;;;;15.60;3.73;;;20.50;89.10;;;;;;5462782;26;20466;-81
2024/04/17 07:31:06;;;;;;;15.97;3.50;;;20.20;87.90;;;;;;5459781;26;20466;-81
2024/04/17 07:33:32;;;;;;;14.63;4.17;;;19.80;89.00;;;;;;5474450;26;20442;-81
2024/04/17 07:36:01;;;;;;;11.80;4.30;;;20.10;88.80;;;;;;5465862;26;20523;-80
2024/04/17 07:38:27;;;;;;;12.90;3.77;;;19.70;87.90;;;;;;5474740;26;20471;-82
2024/04/17 07:41:00;;;;;;;12.50;3.50;;;19.80;88.70;;;;;;5457198;26;20521;-81
2024/04/17 07:43:30;;;;;;;11.43;5.13;;;19.60;88.60;;;;;;5458823;26;20517;-81
2024/04/17 07:46:01;;;;;;;11.73;3.90;;;19.30;89.50;;;;;;5459557;26;20542;-81
2024/04/17 07:48:28;;;;;;;10.70;4.40;;;18.90;89.40;;;;;;5472849;26;20520;-80
2024/04/17 07:50:56;;;;;;;10.97;3.87;;;18.00;90.60;;;;;;5459343;26;20469;-82
2024/04/17 07:53:22;;;;;;;7.90;4.00;;;17.30;91.30;;;;;;5460578;26;20468;-81
2024/04/17 07:55:51;;;;;;;14.00;4.60;;;17.20;92.20;;;;;;5466398;26;20474;-82
2024/04/17 07:58:17;;;;;;;13.20;3.60;;;17.50;92.20;;;;;;5470602;26;20495;-82
2024/04/17 08:00:46;;;;;;;11.83;4.70;;;18.40;91.60;;;;;;5457854;26;20469;-83
2024/04/17 08:03:14;;;;;;;9.17;3.43;;;19.10;90.70;;;;;;5462814;26;20474;-82
2024/04/17 08:05:45;;;;;;;9.80;3.40;;;19.80;90.40;;;;;;5458622;26;20460;-82
2024/04/17 08:08:11;;;;;;;7.60;3.77;;;20.60;88.40;;;;;;5481388;26;20482;-81
2024/04/17 08:10:40;;;;;;;12.27;3.40;;;21.10;86.90;;;;;;5456309;26;20875;-82
2024/04/17 08:13:11;;;;;;;13.43;3.43;;;20.50;86.50;;;;;;5470728;26;20515;-81
2024/04/17 08:15:42;;;;;;;7.37;2.50;;;20.90;88.10;;;;;;5471587;26;20570;-81
2024/04/17 08:18:08;;;;;;;8.90;3.37;;;20.90;84.70;;;;;;5470110;26;20476;-81
2024/04/17 08:20:39;;;;;;;7.50;2.80;;;20.10;86.20;;;;;;5473184;26;20516;-81
2024/04/17 08:23:05;;;;;;;7.23;3.10;;;20.00;87.00;;;;;;5476305;26;20514;-81
2024/04/17 08:25:34;;;;;;;6.50;2.93;;;20.10;86.90;;;;;;5476954;26;20471;-80
2024/04/17 08:28:00;;;;;;;7.90;3.10;;;20.20;86.40;;;;;;5474831;26;20446;-80
2024/04/17 08:30:28;;;;;;;8.63;3.90;;;19.80;86.50;;;;;;5471818;26;20473;-81
2024/04/17 08:32:54;;;;;;;7.63;2.50;;;18.60;88.90;;;;;;5470495;26;20556;-81
2024/04/17 08:35:23;;;;;;;7.30;4.57;;;18.80;90.30;;;;;;5464616;26;20466;-82
2024/04/17 08:37:52;;;;;;;9.50;3.17;;;19.90;87.60;;;;;;5467481;26;20885;-82
2024/04/17 08:40:20;;;;;;;9.00;4.03;;;20.60;85.80;;;;;;5456972;26;20530;-82
2024/04/17 08:42:51;;;;;;;7.70;3.10;;;21.50;85.80;;;;;;5468983;26;20504;-81
2024/04/17 08:45:27;;;;;;;13.47;4.40;;;22.50;83.10;;;;;;5463082;26;20513;-83
2024/04/17 08:47:55;;;;;;;8.30;3.60;;;22.00;81.20;;;;;;5468890;26;20453;-81
2024/04/17 08:50:29;;;;;;;5.67;3.33;;;20.80;83.20;;;;;;5469495;26;20466;-81
2024/04/17 08:52:59;;;;;;;14.10;3.70;;;19.90;84.50;;;;;;5469491;26;20505;-81
2024/04/17 08:55:28;;;;;;;5.67;3.63;;;18.60;86.60;;;;;;5449935;26;20509;-81
2024/04/17 08:57:56;;;;;;;9.07;4.43;;;17.70;90.00;;;;;;5468672;26;20517;-81
2024/04/17 09:00:26;;;;;;;4.80;3.57;;;17.30;90.60;;;;;;5455148;26;20523;-82
2024/04/17 09:02:55;;;;;;;10.17;4.07;;;16.70;90.80;;;;;;5469537;26;20509;-81
2024/04/17 09:05:25;;;;;;;7.80;3.70;;;16.30;91.60;;;;;;5452908;26;20465;-81
2024/04/17 09:07:52;;;;;;;6.85;3.65;;;16.10;91.80;;;;;;5446374;26;20536;-80
2024/04/17 09:10:23;;;;;;;4.88;3.28;;;15.90;92.10;;;;;;5458340;26;20276;-81
2024/04/17 09:12:50;;;;;;;10.60;4.18;;;15.50;91.80;;;;;;5457991;26;20232;-82
2024/04/17 09:15:22;;;;;;;7.75;3.10;;;15.20;91.70;;;;;;5465833;26;20251;-82
2024/04/17 09:17:48;;;;;;;5.72;2.63;;;14.70;91.80;;;;;;5476326;26;20255;-80
2024/04/17 09:20:17;;;;;;;5.72;2.35;;;14.50;91.90;;;;;;5470588;26;20262;-81
2024/04/17 09:22:43;;;;;;;5.30;1.85;;;14.50;91.60;;;;;;5463103;26;20264;-80
2024/04/17 09:25:15;;;;;;;7.17;1.73;;;14.70;92.10;;;;;;5463134;26;20244;-83
2024/04/17 09:27:45;;;;;;;2.13;1.80;;;14.70;91.20;;;;;;5459636;26;20502;-81
2024/04/17 09:30:15;;;;;;;3.58;1.65;;;14.00;91.20;;;;;;5456333;26;20275;-81
2024/04/17 09:32:42;;;;;;;8.55;3.08;;;13.10;92.30;;;;;;5446372;26;20755;-82
2024/04/17 09:35:14;;;;;;;5.78;1.92;;;12.60;94.80;;;;;;5459710;26;20244;-82
2024/04/17 09:37:40;;;;;;;3.63;1.73;;;12.30;96.40;;;;;;5457999;26;20314;-81
2024/04/17 09:40:10;;;;;;;7.63;1.37;;;11.70;97.50;;;;;;5464107;26;20244;-80
2024/04/17 09:42:41;;;;;;;2.35;1.10;;;11.20;99.90;;;;;;5472999;26;20521;-79
2024/04/17 09:45:16;;;;;;;2.28;1.70;;;10.80;99.90;;;;;;5469191;26;20228;-79
2024/04/17 09:47:43;;;;;;;4.20;1.17;;;10.50;99.90;;;;;;5462304;26;20304;-79
2024/04/17 09:50:17;;;;;;;3.42;2.00;;;10.30;99.90;;;;;;5465103;26;20275;-78
2024/04/17 09:52:48;;;;;;;2.42;1.50;;;10.10;99.90;;;;;;5472279;26;20215;-81
2024/04/17 09:55:18;;;;;;;2.40;1.17;;;9.90;99.90;;;;;;5471475;26;20297;-77
2024/04/17 09:57:46;;;;;;;2.38;1.10;;;9.80;99.90;;;;;;5467668;26;20283;-80
2024/04/17 10:00:19;;;;;;;4.65;1.70;;;9.60;99.90;;;;;;5452098;26;20237;-83
2024/04/17 10:02:47;;;;;;;2.85;1.70;;;9.50;99.90;;;;;;5462308;26;20280;-81
2024/04/17 10:05:16;;;;;;;7.53;2.15;;;9.30;99.90;;;;;;5468803;26;20236;-82
2024/04/17 10:07:43;;;;;;;2.50;1.10;;;9.10;99.90;;;;;;5454727;26;20703;-82
2024/04/17 10:10:17;;;;;;;1.70;1.40;;;8.90;99.90;;;;;;5463456;26;20236;-82
2024/04/17 10:12:46;;;;;;;1.75;1.30;;;8.80;99.90;;;;;;5448015;26;20232;-81
2024/04/17 10:15:15;;;;;;;1.20;1.10;;;8.60;99.90;;;;;;5465775;26;20291;-83
2024/04/17 10:17:44;;;;;;;2.67;1.40;;;8.30;99.90;;;;;;5457244;26;20248;-83
2024/04/17 10:20:29;;;;;;;4.10;1.63;;;8.50;99.90;;;;;;5448056;26;20600;-82
2024/04/17 10:23:06;;;;;;;4.10;1.58;;;8.60;99.90;;;;;;5453373;26;20329;-85
2024/04/17 10:25:35;;;;;;;3.45;1.60;;;8.80;99.90;;;;;;5456780;26;20274;-84
2024/04/17 10:28:03;;;;;;;1.75;0.95;;;9.00;99.90;;;;;;5448465;26;20339;-84
2024/04/17 10:30:36;;;;;;;7.75;1.23;;;9.20;99.90;;;;;;5453612;26;20233;-85
2024/04/17 10:33:40;;;;;;;5.90;1.42;;;9.40;99.90;;;;;;5460276;26;20278;-84
2024/04/17 10:39:22;;;;;;;6.40;1.88;;;10.70;99.90;;;;;;5255296;27;20272;-82
2024/04/17 10:42:16;;;;;;;3.00;1.17;;;11.10;99.90;;;;;;5305113;27;20243;-81
2024/04/17 10:45:33;;;;;;;3.40;1.90;;;11.60;99.90;;;;;;5304081;27;20279;-83
2024/04/17 10:51:33;;;;;;;6.88;4.50;;;12.20;99.90;;;;;;5336145;26;20254;-84
2024/04/17 10:54:59;;;;;;;5.32;1.50;;;12.00;99.90;;;;;;5443173;26;20243;-81
2024/04/17 10:58:14;;;;;;;;;;;;;;;;;;;;;
2024/04/17 11:00:45;;;;;;;5.28;1.85;;;12.40;99.90;;;;;;5412435;26;20264;-83
2024/04/17 11:06:35;;;;;;;2.70;1.67;;;12.60;99.90;;;;;;5444701;26;20236;-83
2024/04/17 11:09:07;;;;;;;1.23;1.10;;;12.70;99.90;;;;;;5454532;26;20347;-86
2024/04/17 11:11:38;;;;;;;2.00;1.20;;;12.80;99.90;;;;;;5461842;26;20258;-83
2024/04/17 11:14:13;;;;;;;1.40;1.15;;;13.10;99.90;;;;;;5459374;26;20237;-84
2024/04/17 11:16:41;;;;;;;2.30;1.10;;;13.30;99.90;;;;;;5453626;26;20232;-84
2024/04/17 11:19:08;;;;;;;3.92;1.92;;;13.50;99.90;;;;;;5456988;26;20232;-84
2024/04/17 11:21:39;;;;;;;4.07;1.40;;;13.60;99.90;;;;;;5443507;26;20232;-83
2024/04/17 11:24:17;;;;;;;5.15;1.63;;;13.50;99.90;;;;;;5452682;26;20267;-84
2024/04/17 11:26:46;;;;;;;6.38;1.48;;;13.50;99.90;;;;;;5444642;26;20266;-85
2024/04/17 11:29:15;;;;;;;2.80;1.48;;;13.10;99.90;;;;;;5434007;26;20241;-84
2024/04/17 11:31:45;;;;;;;5.65;2.00;;;12.80;99.90;;;;;;5452140;26;20292;-83
2024/04/17 11:34:18;;;;;;;2.33;1.40;;;12.60;99.90;;;;;;5470522;26;20254;-85
2024/04/17 11:36:47;;;;;;;1.40;1.15;;;12.60;99.90;;;;;;5478872;26;20406;-84
2024/04/17 11:39:16;;;;;;;2.55;1.95;;;12.50;99.90;;;;;;5477935;26;20274;-85
2024/04/17 11:41:44;;;;;;;2.05;1.42;;;12.50;99.90;;;;;;5478384;26;20224;-83
2024/04/17 11:44:10;;;;;;;1.45;1.25;;;12.70;99.90;;;;;;5478586;26;20266;-83
2024/04/17 11:46:39;;;;;;;3.57;1.37;;;12.70;99.90;;;;;;5478888;26;20216;-83
2024/04/17 11:49:13;;;;;;;4.30;1.55;;;12.70;99.90;;;;;;5478708;26;20530;-86
2024/04/17 11:51:41;;;;;;;3.45;1.50;;;12.70;99.90;;;;;;5478343;26;20220;-85
2024/04/17 11:54:07;;;;;;;2.33;1.45;;;12.70;99.90;;;;;;5478690;26;20229;-86
2024/04/17 11:56:39;;;;;;;2.93;0.90;;;12.60;99.90;;;;;;5477831;26;20220;-84
2024/04/17 11:59:05;;;;;;;2.40;1.10;;;12.60;99.90;;;;;;5478203;26;20729;-85
2024/04/17 12:01:34;;;;;;;2.50;1.17;;;12.40;99.90;;;;;;5476844;26;20313;-82
2024/04/17 12:04:00;;;;;;;1.90;1.80;;;12.30;99.90;;;;;;5471825;26;20274;-83
2024/04/17 12:06:28;;;;;;;1.85;1.20;;;12.10;99.90;;;;;;5474203;26;20216;-85
2024/04/17 12:08:54;;;;;;;2.72;1.67;;;12.00;99.90;;;;;;5476929;26;20263;-83
2024/04/17 12:11:26;;;;;;;3.35;1.83;;;12.00;99.90;;;;;;5453539;26;20232;-85
2024/04/17 12:13:54;;;;;;;2.28;1.30;;;12.10;99.90;;;;;;5471135;26;20233;-85
2024/04/17 12:16:23;;;;;;;1.88;1.00;;;12.10;99.90;;;;;;5447645;26;20323;-85
2024/04/17 12:18:49;;;;;;;2.33;1.60;;;12.10;99.90;;;;;;5462440;26;20278;-82
2024/04/17 12:21:19;;;;;;;2.78;1.70;;;11.90;99.90;;;;;;5476753;26;20263;-84
2024/04/17 12:23:50;;;;;;;2.15;1.50;;;11.80;99.90;;;;;;5476721;26;20228;-83
2024/04/17 12:29:08;;;;;;;1.50;1.20;;;11.70;99.90;;;;;;5477410;26;20278;-83
2024/04/17 12:31:34;;;;;;;2.22;1.60;;;11.90;99.90;;;;;;5466446;26;20218;-85
2024/04/17 12:34:02;;;;;;;2.17;1.35;;;12.00;99.90;;;;;;5441509;26;20233;-84
2024/04/17 12:36:32;;;;;;;3.63;1.88;;;12.10;99.90;;;;;;5453809;26;20233;-85
2024/04/17 12:39:01;;;;;;;1.70;1.55;;;12.30;99.90;;;;;;5470462;25;20232;-83
2024/04/17 12:41:30;;;;;;;3.75;1.45;;;12.20;99.90;;;;;;5462379;26;20254;-84
2024/04/17 12:43:58;;;;;;;3.72;1.50;;;12.30;99.90;;;;;;5478112;26;20248;-83
2024/04/17 12:46:27;;;;;;;5.53;1.50;;;12.40;99.90;;;;;;5477261;26;20275;-83
2024/04/17 12:48:55;;;;;;;3.30;1.80;;;12.50;99.90;;;;;;5476399;26;20314;-83
2024/04/17 12:51:24;;;;;;;1.95;1.45;;;12.60;99.90;;;;;;5476898;26;20283;-85
2024/04/17 12:53:50;;;;;;;1.83;1.35;;;12.60;99.90;;;;;;5477624;26;20254;-84
2024/04/17 12:56:19;;;;;;;1.33;1.10;;;12.70;99.90;;;;;;5477152;26;20283;-83
2024/04/17 12:58:48;;;;;;;1.80;1.40;;;12.90;99.90;;;;;;5476334;26;20254;-83
2024/04/17 13:01:14;;;;;;;3.95;1.67;;;13.00;99.90;;;;;;5476985;26;20285;-83
2024/04/17 13:03:45;;;;;;;2.47;1.60;;;13.10;99.90;;;;;;5476641;26;20247;-85
2024/04/17 13:06:13;;;;;;;2.10;1.23;;;13.30;99.90;;;;;;5476449;26;20561;-85
2024/04/17 13:08:42;;;;;;;3.08;1.90;;;13.40;99.90;;;;;;5476760;25;20284;-87
2024/04/17 13:11:08;;;;;;;4.78;1.95;;;13.60;99.90;;;;;;5476387;26;20228;-83